sensor_id;sensor_type;location;lat;lon;timestamp;temperature;humidity
4687;DHT22;2357;47.316;-1.348;2024-03-08T00:31:14;9.40;99.90
4687;DHT22;2357;47.316;-1.348;2024-03-08T00:33:41;9.50;99.90
4687;DHT22;2357;47.316;-1.348;2024-03-08T00:36:07;9.30;99.90
4687;DHT22;2357;47.316;-1.348;2024-03-08T00:38:33;9.20;99.90
4687;DHT22;2357;47.316;-1.348;2024-03-08T00:41:00;9.20;99.90
4687;DHT22;2357;47.316;-1.348;2024-03-08T00:43:27;9.10;99.90
4687;DHT22;2357;47.316;-1.348;2024-03-08T00:45:53;9.10;99.90
4687;DHT22;2357;47.316;-1.348;2024-03-08T00:48:18;9.00;99.90
4687;DHT22;2357;47.316;-1.348;2024-03-08T00:50:44;9.00;99.90
4687;DHT22;2357;47.316;-1.348;2024-03-08T00:53:13;9.00;99.90
4687;DHT22;2357;47.316;-1.348;2024-03-08T00:55:39;9.00;99.90
4687;DHT22;2357;47.316;-1.348;2024-03-08T00:58:05;9.00;99.90
4687;DHT22;2357;47.316;-1.348;2024-03-08T01:00:30;8.90;99.90
4687;DHT22;2357;47.316;-1.348;2024-03-08T01:02:56;8.90;99.90
4687;DHT22;2357;47.316;-1.348;2024-03-08T01:05:22;8.90;99.90
4687;DHT22;2357;47.316;-1.348;2024-03-08T01:07:50;8.90;99.90
4687;DHT22;2357;47.316;-1.348;2024-03-08T01:10:16;8.70;99.90
4687;DHT22;2357;47.316;-1.348;2024-03-08T01:12:41;8.80;99.90
4687;DHT22;2357;47.316;-1.348;2024-03-08T01:15:09;8.80;99.90
4687;DHT22;2357;47.316;-1.348;2024-03-08T01:17:36;8.80;99.90
4687;DHT22;2357;47.316;-1.348;2024-03-08T01:20:02;8.70;99.90
4687;DHT22;2357;47.316;-1.348;2024-03-08T01:22:28;8.70;99.90
4687;DHT22;2357;47.316;-1.348;2024-03-08T01:24:55;8.70;99.90
4687;DHT22;2357;47.316;-1.348;2024-03-08T01:27:21;8.80;99.90
4687;DHT22;2357;47.316;-1.348;2024-03-08T01:29:47;8.60;99.90
4687;DHT22;2357;47.316;-1.348;2024-03-08T01:32:13;8.40;99.90
4687;DHT22;2357;47.316;-1.348;2024-03-08T01:34:40;8.50;99.90
4687;DHT22;2357;47.316;-1.348;2024-03-08T01:37:05;8.50;99.90
4687;DHT22;2357;47.316;-1.348;2024-03-08T01:39:32;8.50;99.90
4687;DHT22;2357;47.316;-1.348;2024-03-08T01:41:58;8.60;99.90
4687;DHT22;2357;47.316;-1.348;2024-03-08T01:44:23;8.50;99.90
4687;DHT22;2357;47.316;-1.348;2024-03-08T01:46:50;8.60;99.90
4687;DHT22;2357;47.316;-1.348;2024-03-08T01:49:18;8.30;99.90
4687;DHT22;2357;47.316;-1.348;2024-03-08T01:51:46;8.50;99.90
4687;DHT22;2357;47.316;-1.348;2024-03-08T01:54:14;8.50;99.90
4687;DHT22;2357;47.316;-1.348;2024-03-08T01:56:41;8.60;99.90
4687;DHT22;2357;47.316;-1.348;2024-03-08T01:59:07;8.60;99.90
4687;DHT22;2357;47.316;-1.348;2024-03-08T02:01:34;8.60;99.90
4687;DHT22;2357;47.316;-1.348;2024-03-08T02:04:00;8.60;99.90
4687;DHT22;2357;47.316;-1.348;2024-03-08T02:06:25;8.60;99.90
4687;DHT22;2357;47.316;-1.348;2024-03-08T02:08:51;8.60;99.90
4687;DHT22;2357;47.316;-1.348;2024-03-08T02:11:17;8.50;99.90
4687;DHT22;2357;47.316;-1.348;2024-03-08T02:13:44;8.60;99.90
4687;DHT22;2357;47.316;-1.348;2024-03-08T02:16:09;8.60;99.90
4687;DHT22;2357;47.316;-1.348;2024-03-08T02:18:36;8.60;99.90
4687;DHT22;2357;47.316;-1.348;2024-03-08T02:21:03;8.60;99.90
4687;DHT22;2357;47.316;-1.348;2024-03-08T02:23:29;8.50;99.90
4687;DHT22;2357;47.316;-1.348;2024-03-08T02:25:56;8.50;99.90
4687;DHT22;2357;47.316;-1.348;2024-03-08T02:28:23;8.50;99.90
4687;DHT22;2357;47.316;-1.348;2024-03-08T02:30:51;8.50;99.90
4687;DHT22;2357;47.316;-1.348;2024-03-08T02:33:20;8.40;99.90
4687;DHT22;2357;47.316;-1.348;2024-03-08T02:35:46;8.50;99.90
4687;DHT22;2357;47.316;-1.348;2024-03-08T02:38:17;8.60;99.90
4687;DHT22;2357;47.316;-1.348;2024-03-08T02:40:44;8.60;99.90
4687;DHT22;2357;47.316;-1.348;2024-03-08T02:43:11;8.60;99.90
4687;DHT22;2357;47.316;-1.348;2024-03-08T02:45:37;8.60;99.90
4687;DHT22;2357;47.316;-1.348;2024-03-08T02:48:04;8.60;99.90
4687;DHT22;2357;47.316;-1.348;2024-03-08T02:50:32;8.60;99.90
4687;DHT22;2357;47.316;-1.348;2024-03-08T02:52:57;8.60;99.90
4687;DHT22;2357;47.316;-1.348;2024-03-08T02:55:23;8.50;99.90
4687;DHT22;2357;47.316;-1.348;2024-03-08T02:57:51;8.50;99.90
4687;DHT22;2357;47.316;-1.348;2024-03-08T03:00:17;8.50;99.90
4687;DHT22;2357;47.316;-1.348;2024-03-08T03:02:45;8.40;99.90
4687;DHT22;2357;47.316;-1.348;2024-03-08T03:05:10;8.40;99.90
4687;DHT22;2357;47.316;-1.348;2024-03-08T03:07:37;8.40;99.90
4687;DHT22;2357;47.316;-1.348;2024-03-08T03:10:03;8.30;99.90
4687;DHT22;2357;47.316;-1.348;2024-03-08T03:12:30;8.30;99.90
4687;DHT22;2357;47.316;-1.348;2024-03-08T03:14:59;8.30;99.90
4687;DHT22;2357;47.316;-1.348;2024-03-08T03:17:25;8.30;99.90
4687;DHT22;2357;47.316;-1.348;2024-03-08T03:19:51;8.20;99.90
4687;DHT22;2357;47.316;-1.348;2024-03-08T03:22:18;8.20;99.90
4687;DHT22;2357;47.316;-1.348;2024-03-08T03:24:44;8.30;99.90
4687;DHT22;2357;47.316;-1.348;2024-03-08T03:27:12;8.30;99.90
4687;DHT22;2357;47.316;-1.348;2024-03-08T03:29:42;8.30;99.90
4687;DHT22;2357;47.316;-1.348;2024-03-08T03:32:13;8.20;99.90
4687;DHT22;2357;47.316;-1.348;2024-03-08T03:34:40;8.20;99.90
4687;DHT22;2357;47.316;-1.348;2024-03-08T03:37:06;8.20;99.90
4687;DHT22;2357;47.316;-1.348;2024-03-08T03:39:33;8.20;99.90
4687;DHT22;2357;47.316;-1.348;2024-03-08T03:42:00;8.20;99.90
4687;DHT22;2357;47.316;-1.348;2024-03-08T03:44:28;8.10;99.90
4687;DHT22;2357;47.316;-1.348;2024-03-08T03:46:54;8.10;99.90
4687;DHT22;2357;47.316;-1.348;2024-03-08T03:49:20;8.10;99.90
4687;DHT22;2357;47.316;-1.348;2024-03-08T03:51:46;8.20;99.90
4687;DHT22;2357;47.316;-1.348;2024-03-08T03:54:12;8.20;99.90
4687;DHT22;2357;47.316;-1.348;2024-03-08T03:56:38;8.10;99.90
4687;DHT22;2357;47.316;-1.348;2024-03-08T03:59:05;8.00;99.90
4687;DHT22;2357;47.316;-1.348;2024-03-08T04:01:32;8.10;99.90
4687;DHT22;2357;47.316;-1.348;2024-03-08T04:03:57;8.10;99.90
4687;DHT22;2357;47.316;-1.348;2024-03-08T04:06:23;8.10;99.90
4687;DHT22;2357;47.316;-1.348;2024-03-08T04:11:15;8.00;99.90
4687;DHT22;2357;47.316;-1.348;2024-03-08T04:13:42;8.00;99.90
4687;DHT22;2357;47.316;-1.348;2024-03-08T04:16:08;8.10;99.90
4687;DHT22;2357;47.316;-1.348;2024-03-08T04:18:36;8.10;99.90
4687;DHT22;2357;47.316;-1.348;2024-03-08T04:21:04;8.10;99.90
4687;DHT22;2357;47.316;-1.348;2024-03-08T04:23:33;8.10;99.90
4687;DHT22;2357;47.316;-1.348;2024-03-08T04:26:01;8.10;99.90
4687;DHT22;2357;47.316;-1.348;2024-03-08T04:28:27;8.10;99.90
4687;DHT22;2357;47.316;-1.348;2024-03-08T04:40:40;8.10;99.90
4687;DHT22;2357;47.316;-1.348;2024-03-08T04:43:06;8.10;99.90
4687;DHT22;2357;47.316;-1.348;2024-03-08T04:45:34;8.10;99.90
4687;DHT22;2357;47.316;-1.348;2024-03-08T04:48:00;8.10;99.90
4687;DHT22;2357;47.316;-1.348;2024-03-08T05:00:13;7.90;99.90
4687;DHT22;2357;47.316;-1.348;2024-03-08T05:02:40;7.90;99.90
4687;DHT22;2357;47.316;-1.348;2024-03-08T05:05:07;7.80;99.90
4687;DHT22;2357;47.316;-1.348;2024-03-08T05:07:33;7.80;99.90
4687;DHT22;2357;47.316;-1.348;2024-03-08T05:09:59;7.90;99.90
4687;DHT22;2357;47.316;-1.348;2024-03-08T05:12:25;7.90;99.90
4687;DHT22;2357;47.316;-1.348;2024-03-08T05:14:51;7.80;99.90
4687;DHT22;2357;47.316;-1.348;2024-03-08T05:17:17;7.90;99.90
4687;DHT22;2357;47.316;-1.348;2024-03-08T05:19:43;7.90;99.90
4687;DHT22;2357;47.316;-1.348;2024-03-08T05:22:09;7.90;99.90
4687;DHT22;2357;47.316;-1.348;2024-03-08T05:24:35;7.90;99.90
4687;DHT22;2357;47.316;-1.348;2024-03-08T05:27:01;7.90;99.90
4687;DHT22;2357;47.316;-1.348;2024-03-08T05:29:28;7.90;99.90
4687;DHT22;2357;47.316;-1.348;2024-03-08T05:31:54;7.90;99.90
4687;DHT22;2357;47.316;-1.348;2024-03-08T05:34:20;7.80;99.90
4687;DHT22;2357;47.316;-1.348;2024-03-08T05:36:47;7.90;99.90
4687;DHT22;2357;47.316;-1.348;2024-03-08T05:39:15;7.90;99.90
4687;DHT22;2357;47.316;-1.348;2024-03-08T05:41:41;7.90;99.90
4687;DHT22;2357;47.316;-1.348;2024-03-08T05:44:07;7.90;99.90
4687;DHT22;2357;47.316;-1.348;2024-03-08T05:46:34;7.80;99.90
4687;DHT22;2357;47.316;-1.348;2024-03-08T05:49:00;7.80;99.90
4687;DHT22;2357;47.316;-1.348;2024-03-08T05:51:25;7.90;99.90
4687;DHT22;2357;47.316;-1.348;2024-03-08T05:53:54;7.90;99.90
4687;DHT22;2357;47.316;-1.348;2024-03-08T05:56:21;7.80;99.90
4687;DHT22;2357;47.316;-1.348;2024-03-08T05:58:48;7.80;99.90
4687;DHT22;2357;47.316;-1.348;2024-03-08T06:01:16;7.70;99.90
4687;DHT22;2357;47.316;-1.348;2024-03-08T06:03:41;7.80;99.90
4687;DHT22;2357;47.316;-1.348;2024-03-08T06:06:13;7.80;99.90
4687;DHT22;2357;47.316;-1.348;2024-03-08T06:08:39;7.80;99.90
4687;DHT22;2357;47.316;-1.348;2024-03-08T06:11:05;7.80;99.90
4687;DHT22;2357;47.316;-1.348;2024-03-08T06:13:32;7.80;99.90
4687;DHT22;2357;47.316;-1.348;2024-03-08T06:15:59;7.80;99.90
4687;DHT22;2357;47.316;-1.348;2024-03-08T06:18:26;7.70;99.90
4687;DHT22;2357;47.316;-1.348;2024-03-08T06:20:51;7.70;99.90
4687;DHT22;2357;47.316;-1.348;2024-03-08T06:23:18;7.80;99.90
4687;DHT22;2357;47.316;-1.348;2024-03-08T06:25:44;7.70;99.90
4687;DHT22;2357;47.316;-1.348;2024-03-08T06:28:10;7.70;99.90
4687;DHT22;2357;47.316;-1.348;2024-03-08T06:30:36;7.60;99.90
4687;DHT22;2357;47.316;-1.348;2024-03-08T06:33:01;7.60;99.90
4687;DHT22;2357;47.316;-1.348;2024-03-08T06:35:27;7.60;99.90
4687;DHT22;2357;47.316;-1.348;2024-03-08T06:37:53;7.60;99.90
4687;DHT22;2357;47.316;-1.348;2024-03-08T06:40:19;7.60;99.90
4687;DHT22;2357;47.316;-1.348;2024-03-08T06:42:44;7.60;99.90
4687;DHT22;2357;47.316;-1.348;2024-03-08T06:45:11;7.60;99.90
4687;DHT22;2357;47.316;-1.348;2024-03-08T06:47:38;7.60;99.90
4687;DHT22;2357;47.316;-1.348;2024-03-08T06:50:04;7.60;99.90
4687;DHT22;2357;47.316;-1.348;2024-03-08T06:52:30;7.60;99.90
4687;DHT22;2357;47.316;-1.348;2024-03-08T06:54:55;7.60;99.90
4687;DHT22;2357;47.316;-1.348;2024-03-08T06:57:22;7.60;99.90
4687;DHT22;2357;47.316;-1.348;2024-03-08T06:59:48;7.70;99.90
4687;DHT22;2357;47.316;-1.348;2024-03-08T07:02:14;7.70;99.90
4687;DHT22;2357;47.316;-1.348;2024-03-08T07:04:40;7.70;99.90
4687;DHT22;2357;47.316;-1.348;2024-03-08T07:07:06;7.70;99.90
4687;DHT22;2357;47.316;-1.348;2024-03-08T07:09:37;7.70;99.90
